METAR Data
IDs: Format: Raw Decoded Include TAF

Data at: 0912 UTC 19 Nov 2018

METAR for:KSAT (San Antonio Intl, TX, US)
Text:KSAT 190900Z 01008KT 350V050 10SM -RA OVC016 09/04 A3016 RMK AO2 P0000 T00890044 $
Temperature: 8.9°C ( 48°F)
Dewpoint: 4.4°C ( 40°F) [RH = 73%]
Pressure (altimeter):30.16 inches Hg (1021.4 mb)
Winds:from the N (10 degrees) at 9 MPH (8 knots; 4.1 m/s)
Visibility:10 or more sm (16+ km)
Ceiling:1600 feet AGL
Clouds: overcast cloud deck at 1600 feet AGL
Weather:-RA (light rain)
QC Flag:SOME DATA ABOVE MAY BE INACCURATE!!!"$" is an indication the sensor requires maintenance.